Time;durP1;ratioP1;P1;durP2;ratioP2;P2;SDS_P1;SDS_P2;PMS_P1;PMS_P2;Temp;Humidity;BMP_temperature;BMP_pressure;BME280_temperature;BME280_humidity;BME280_pressure;Samples;Min_cycle;Max_cycle;Signal;HPM_P1;HPM_P2
2022/03/14 00:08:47;;;;;;;2.75;1.73;;;10.50;99.90;;;;;;6733587;88;20192;-76
2022/03/14 00:18:50;;;;;;;4.30;2.10;;;10.50;99.90;;;;;;6737271;88;20247;-76
2022/03/14 00:28:50;;;;;;;4.10;2.28;;;10.50;99.90;;;;;;6732792;88;20766;-77
2022/03/14 00:38:52;;;;;;;4.12;2.50;;;10.40;99.90;;;;;;6735503;88;20283;-77
2022/03/14 00:48:52;;;;;;;6.00;2.50;;;10.50;99.90;;;;;;6725040;88;20370;-76
2022/03/14 00:58:54;;;;;;;4.28;2.58;;;10.40;99.90;;;;;;6728072;88;20297;-76
2022/03/14 01:08:54;;;;;;;5.57;2.80;;;10.50;99.90;;;;;;6718420;88;20386;-78
2022/03/14 01:18:55;;;;;;;6.80;2.97;;;10.30;99.90;;;;;;6717980;88;20189;-77
2022/03/14 01:28:57;;;;;;;5.12;2.80;;;10.10;99.90;;;;;;6725121;88;20204;-77
2022/03/14 01:38:58;;;;;;;5.93;3.20;;;9.90;99.90;;;;;;6730061;88;20173;-79
2022/03/14 01:49:00;;;;;;;6.53;3.20;;;9.60;99.90;;;;;;6732350;88;20185;-75
2022/03/14 01:59:01;;;;;;;5.93;3.00;;;9.40;99.90;;;;;;6723775;88;20223;-77
2022/03/14 02:09:03;;;;;;;7.00;3.60;;;9.20;99.90;;;;;;6718934;88;20504;-75
2022/03/14 02:19:03;;;;;;;12.15;6.15;;;9.10;99.90;;;;;;6721635;88;20243;-77
2022/03/14 02:29:04;;;;;;;13.15;7.10;;;9.00;99.90;;;;;;6722770;88;20258;-76
2022/03/14 02:39:06;;;;;;;14.87;8.88;;;8.80;99.90;;;;;;6718901;88;20201;-76
2022/03/14 02:49:09;;;;;;;20.00;10.40;;;8.60;99.90;;;;;;6718073;88;20755;-77
2022/03/14 02:59:09;;;;;;;20.35;10.80;;;8.50;99.90;;;;;;6718664;88;20769;-77
2022/03/14 03:09:10;;;;;;;15.98;9.68;;;8.50;99.90;;;;;;6717394;88;20181;-76
2022/03/14 03:19:11;;;;;;;20.27;10.83;;;8.50;99.90;;;;;;6717773;88;20193;-78
2022/03/14 03:29:11;;;;;;;17.98;10.10;;;8.50;99.90;;;;;;6716783;88;20483;-76
2022/03/14 03:39:12;;;;;;;15.77;9.80;;;8.60;99.90;;;;;;6714168;88;20643;-76
2022/03/14 03:49:12;;;;;;;15.98;9.57;;;8.50;99.90;;;;;;6714063;88;20226;-77
2022/03/14 03:59:13;;;;;;;18.87;9.30;;;8.50;99.90;;;;;;6721721;88;20302;-77
2022/03/14 04:09:13;;;;;;;21.23;10.55;;;8.50;99.90;;;;;;6714263;88;20220;-77
2022/03/14 04:19:16;;;;;;;17.83;10.20;;;8.60;99.90;;;;;;6712209;88;20256;-76
2022/03/14 04:29:17;;;;;;;15.55;9.30;;;8.60;99.90;;;;;;6718635;88;20661;-76
2022/03/14 04:39:18;;;;;;;14.05;8.75;;;8.60;99.90;;;;;;6723005;88;20288;-78
2022/03/14 04:49:18;;;;;;;11.95;7.20;;;8.50;99.90;;;;;;6722600;88;20185;-75
2022/03/14 04:59:19;;;;;;;7.75;4.50;;;8.50;99.90;;;;;;6716696;88;20709;-75
2022/03/14 05:09:19;;;;;;;7.03;3.70;;;8.50;99.90;;;;;;6717031;88;20205;-75
2022/03/14 05:19:20;;;;;;;6.50;3.58;;;8.50;99.90;;;;;;6729468;88;20942;-75
2022/03/14 05:29:21;;;;;;;4.70;2.72;;;8.50;99.90;;;;;;6726355;88;21053;-77
2022/03/14 05:39:21;;;;;;;6.40;2.87;;;8.60;99.90;;;;;;6745585;88;20185;-76
2022/03/14 05:49:22;;;;;;;6.65;2.92;;;8.50;99.90;;;;;;6736438;88;20223;-77
2022/03/14 05:59:22;;;;;;;5.20;2.95;;;8.60;99.90;;;;;;6744467;88;20185;-77
2022/03/14 06:09:25;;;;;;;5.10;3.08;;;8.50;99.90;;;;;;6752070;88;20260;-77
2022/03/14 06:19:25;;;;;;;7.80;3.62;;;8.40;99.90;;;;;;6750556;88;20332;-77
2022/03/14 06:29:26;;;;;;;5.13;3.27;;;8.40;99.90;;;;;;6739085;88;20219;-76
2022/03/14 06:39:27;;;;;;;5.85;2.75;;;8.50;99.90;;;;;;6746339;88;21074;-76
2022/03/14 06:49:28;;;;;;;5.55;2.50;;;8.50;99.90;;;;;;6737489;88;20201;-77
2022/03/14 06:59:29;;;;;;;4.87;2.10;;;8.50;99.90;;;;;;6741456;88;20687;-77
2022/03/14 07:09:30;;;;;;;3.60;1.87;;;8.60;99.90;;;;;;6755379;88;20212;-77
2022/03/14 07:19:31;;;;;;;3.03;1.62;;;8.50;99.90;;;;;;6742356;88;20267;-77
2022/03/14 07:29:31;;;;;;;4.82;1.80;;;8.60;99.90;;;;;;6735077;88;20809;-77
2022/03/14 07:39:32;;;;;;;4.62;1.30;;;8.70;99.90;;;;;;6722535;88;20186;-77
2022/03/14 07:49:32;;;;;;;3.65;1.20;;;9.00;99.90;;;;;;6737494;88;20176;-77
2022/03/14 07:59:33;;;;;;;2.05;1.30;;;9.20;99.90;;;;;;6754121;88;20310;-76
2022/03/14 08:09:34;;;;;;;4.20;1.17;;;9.40;99.90;;;;;;6721982;88;20232;-76
2022/03/14 08:19:34;;;;;;;5.28;1.48;;;9.70;99.90;;;;;;6725088;88;20173;-77
2022/03/14 08:29:35;;;;;;;4.22;1.60;;;10.20;99.90;;;;;;6730825;88;20193;-77
2022/03/14 08:39:35;;;;;;;3.65;1.20;;;10.30;99.90;;;;;;6723756;88;20212;-77
2022/03/14 08:49:36;;;;;;;5.82;1.40;;;10.70;99.90;;;;;;6729156;88;20209;-76
2022/03/14 08:59:37;;;;;;;3.83;1.25;;;11.10;99.90;;;;;;6725795;88;20185;-76
2022/03/14 09:09:37;;;;;;;3.75;1.55;;;11.30;99.90;;;;;;6724188;88;20193;-75
2022/03/14 09:19:40;;;;;;;3.08;1.05;;;11.40;99.90;;;;;;6725602;88;20235;-76
2022/03/14 09:29:40;;;;;;;1.60;0.90;;;11.50;99.90;;;;;;6736427;88;20325;-76
2022/03/14 09:39:41;;;;;;;3.03;0.95;;;11.10;99.90;;;;;;6721700;88;20315;-76
2022/03/14 09:49:44;;;;;;;4.30;1.10;;;11.50;99.90;;;;;;6732867;88;20192;-76
2022/03/14 09:59:45;;;;;;;1.50;0.73;;;11.50;99.90;;;;;;6735756;88;21074;-77
2022/03/14 10:09:46;;;;;;;3.75;0.70;;;12.70;99.90;;;;;;6728707;88;20205;-78
2022/03/14 10:19:58;;;;;;;2.40;0.65;;;13.70;99.90;;;;;;6720061;88;20210;-77
2022/03/14 10:29:59;;;;;;;2.08;0.73;;;12.10;99.90;;;;;;6735647;88;20198;-77
2022/03/14 10:40:06;;;;;;;1.70;0.67;;;12.90;99.90;;;;;;6717339;88;20216;-77
2022/03/14 10:50:08;;;;;;;2.83;0.77;;;13.40;99.90;;;;;;6725635;88;20700;-77
2022/03/14 11:00:10;;;;;;;2.30;0.70;;;12.90;99.90;;;;;;6736985;88;20269;-78
2022/03/14 11:10:11;;;;;;;1.35;0.60;;;12.50;99.90;;;;;;6729023;88;20193;-76
2022/03/14 11:20:12;;;;;;;2.17;0.87;;;12.50;99.90;;;;;;6727236;88;20639;-77
2022/03/14 11:30:13;;;;;;;2.23;0.90;;;12.50;99.90;;;;;;6745608;88;20575;-76
2022/03/14 11:40:15;;;;;;;1.95;0.73;;;12.40;99.90;;;;;;6727038;88;20544;-77
2022/03/14 11:50:16;;;;;;;1.98;1.08;;;12.90;99.90;;;;;;6731701;88;20193;-76
2022/03/14 12:00:31;;;;;;;1.77;0.90;;;13.10;99.90;;;;;;6734564;88;20224;-76
2022/03/14 12:10:33;;;;;;;2.47;0.80;;;12.60;99.90;;;;;;6732464;88;20172;-76
2022/03/14 12:20:33;;;;;;;1.20;0.60;;;12.30;99.90;;;;;;6723160;88;20198;-76
2022/03/14 12:30:34;;;;;;;2.80;0.60;;;12.10;99.90;;;;;;6723938;88;20631;-76
2022/03/14 12:40:35;;;;;;;2.23;0.70;;;12.80;99.90;;;;;;6726130;88;20214;-76
2022/03/14 12:50:48;;;;;;;1.80;0.70;;;15.20;99.40;;;;;;6724534;88;20544;-76
2022/03/14 13:00:50;;;;;;;2.42;0.70;;;16.10;97.50;;;;;;6722966;88;20265;-76
2022/03/14 13:11:00;;;;;;;1.90;0.73;;;16.10;95.00;;;;;;6729210;88;20655;-76
2022/03/14 13:21:13;;;;;;;3.55;0.93;;;14.80;95.80;;;;;;6729610;88;20245;-76
2022/03/14 13:31:14;;;;;;;1.77;0.75;;;14.60;95.90;;;;;;6733482;88;20335;-76
2022/03/14 13:41:16;;;;;;;3.05;0.88;;;15.70;93.30;;;;;;6732073;88;20204;-76
2022/03/14 13:51:18;;;;;;;2.28;0.82;;;14.70;93.80;;;;;;6719454;88;20185;-75
2022/03/14 14:01:18;;;;;;;2.95;1.00;;;14.30;94.20;;;;;;6725703;88;20196;-75
2022/03/14 14:11:24;;;;;;;2.72;0.90;;;14.30;92.90;;;;;;6725961;88;20215;-75
2022/03/14 14:21:24;;;;;;;5.12;1.37;;;14.10;93.70;;;;;;6716400;88;20801;-75
2022/03/14 14:31:25;;;;;;;3.77;1.30;;;14.40;95.00;;;;;;6721897;88;20194;-75
2022/03/14 14:41:27;;;;;;;3.83;1.37;;;15.40;94.70;;;;;;6720940;88;20622;-75
2022/03/14 14:51:28;;;;;;;4.95;1.73;;;16.20;92.80;;;;;;6730260;88;20368;-75
2022/03/14 15:01:29;;;;;;;3.83;1.40;;;16.30;92.60;;;;;;6717604;88;20185;-75
2022/03/14 15:11:30;;;;;;;7.57;1.62;;;16.50;91.40;;;;;;6725913;88;20318;-75
2022/03/14 15:21:30;;;;;;;3.45;1.35;;;16.40;91.50;;;;;;6733599;88;20174;-75
2022/03/14 15:31:31;;;;;;;6.80;1.80;;;16.40;91.70;;;;;;6727155;88;20201;-76
2022/03/14 15:41:32;;;;;;;6.07;1.55;;;16.80;91.20;;;;;;6719160;88;20186;-76
2022/03/14 15:51:33;;;;;;;9.75;1.70;;;16.50;91.20;;;;;;6724773;88;20204;-76
2022/03/14 16:01:34;;;;;;;4.47;1.30;;;17.10;91.20;;;;;;6716432;88;20630;-76
2022/03/14 16:11:35;;;;;;;5.10;1.42;;;16.10;90.80;;;;;;6732539;88;20216;-77
2022/03/14 16:21:36;;;;;;;7.78;1.35;;;15.60;91.60;;;;;;6734723;88;20228;-76
2022/03/14 16:31:37;;;;;;;5.62;1.52;;;15.10;91.60;;;;;;6718004;88;20710;-76
2022/03/14 16:41:39;;;;;;;6.07;1.20;;;14.50;92.20;;;;;;6723034;88;20310;-76
2022/03/14 16:51:39;;;;;;;4.65;1.20;;;14.50;92.50;;;;;;6717310;88;20215;-76
2022/03/14 17:01:39;;;;;;;7.60;1.30;;;14.30;93.30;;;;;;6728908;88;20765;-77
2022/03/14 17:11:40;;;;;;;5.03;1.20;;;13.80;93.50;;;;;;6729765;88;20235;-78
2022/03/14 17:21:42;;;;;;;5.17;1.17;;;13.50;95.40;;;;;;6727195;88;20214;-75
2022/03/14 17:31:42;;;;;;;5.62;1.30;;;13.20;96.30;;;;;;6732170;88;20520;-76
2022/03/14 17:41:43;;;;;;;5.12;1.30;;;12.70;98.00;;;;;;6727663;88;20628;-77
2022/03/14 17:51:44;;;;;;;4.40;1.60;;;12.30;99.90;;;;;;6725341;88;20201;-76
2022/03/14 18:01:45;;;;;;;4.90;2.08;;;11.80;99.90;;;;;;6726668;88;20539;-77
2022/03/14 18:11:45;;;;;;;6.40;2.10;;;11.40;99.90;;;;;;6729519;88;20289;-78
2022/03/14 18:21:46;;;;;;;16.85;6.20;;;11.10;99.90;;;;;;6722663;88;20707;-75
2022/03/14 18:31:47;;;;;;;8.10;2.50;;;10.90;99.90;;;;;;6722563;88;20213;-75
2022/03/14 18:41:54;;;;;;;6.03;2.90;;;10.50;99.90;;;;;;6743090;88;20207;-77
2022/03/14 18:52:41;;;;;;;8.85;3.00;;;10.40;99.90;;;;;;6751267;88;20193;-76
2022/03/14 19:13:57;;;;;;;6.05;2.75;;;9.70;99.90;;;;;;6753514;88;20158;-77
2022/03/14 19:24:22;;;;;;;11.48;5.03;;;9.90;99.90;;;;;;6747078;88;20206;-77
2022/03/14 19:34:30;;;;;;;13.20;4.03;;;9.40;99.90;;;;;;6717213;88;20179;-78
2022/03/14 19:45:07;;;;;;;6.80;3.20;;;9.10;99.90;;;;;;6733493;88;20265;-74
2022/03/14 20:07:09;;;;;;;10.30;4.47;;;8.60;99.90;;;;;;6736382;88;20261;-78
2022/03/14 20:28:33;;;;;;;9.07;3.60;;;8.20;99.90;;;;;;6734969;88;20241;-77
2022/03/14 21:12:12;;;;;;;12.43;6.25;;;7.60;99.90;;;;;;6524980;91;20209;-75
2022/03/14 21:22:36;;;;;;;15.55;4.87;;;7.50;99.90;;;;;;6607558;88;20197;-75
2022/03/14 21:32:56;;;;;;;12.75;4.62;;;7.30;99.90;;;;;;6759625;87;20194;-76
2022/03/14 21:43:26;;;;;;;11.63;4.57;;;7.20;99.90;;;;;;6759898;87;20180;-76
2022/03/14 22:04:50;;;;;;;9.63;4.40;;;7.00;99.90;;;;;;6733093;88;20199;-75
2022/03/14 22:15:35;;;;;;;14.45;4.90;;;6.70;99.90;;;;;;6772580;87;20457;-76
2022/03/14 22:26:34;;;;;;;11.07;4.47;;;6.50;99.90;;;;;;6756660;88;20221;-77
2022/03/14 22:37:32;;;;;;;10.52;4.43;;;6.50;99.90;;;;;;6764182;87;20209;-77
2022/03/14 22:48:27;;;;;;;11.32;4.35;;;6.30;99.90;;;;;;6710283;88;20204;-76
2022/03/14 22:58:47;;;;;;;8.85;4.20;;;6.30;99.90;;;;;;6721297;88;20167;-76
2022/03/14 23:09:23;;;;;;;;;;;6.10;99.90;;;;;;6712283;88;20824;-76
2022/03/14 23:40:11;;;;;;;10.63;4.60;;;5.70;99.90;;;;;;6693125;88;20209;-78
2022/03/14 23:50:12;;;;;;;9.63;3.75;;;5.70;99.90;;;;;;6727386;88;20206;-78
